createdAt,value
2023-01-17T00:02:21.126Z,5.00
2023-01-17T00:05:06.504Z,6.10
2023-01-17T00:07:52.438Z,5.23
2023-01-17T00:10:23.309Z,6.00
2023-01-17T00:12:56.328Z,3.97
2023-01-17T00:15:23.935Z,4.93
2023-01-17T00:17:51.343Z,5.03
2023-01-17T00:20:39.255Z,4.87
2023-01-17T00:23:26.255Z,4.47
2023-01-17T00:26:05.684Z,3.70
2023-01-17T00:28:38.372Z,3.07
2023-01-17T00:31:06.542Z,2.70
2023-01-17T00:33:33.769Z,3.57
2023-01-17T00:36:01.036Z,3.23
2023-01-17T00:38:30.422Z,2.77
2023-01-17T00:41:12.265Z,3.87
2023-01-17T00:43:57.724Z,3.07
2023-01-17T00:46:43.741Z,3.53
2023-01-17T00:49:29.387Z,3.60
2023-01-17T00:52:14.932Z,3.57
2023-01-17T00:55:00.771Z,4.07
2023-01-17T00:57:46.137Z,4.23
2023-01-17T01:00:31.746Z,4.07
2023-01-17T01:03:17.486Z,4.30
2023-01-17T01:06:03.203Z,3.87
2023-01-17T01:08:48.732Z,4.03
2023-01-17T01:11:37.915Z,3.50
2023-01-17T01:14:24.259Z,4.07
2023-01-17T01:17:09.792Z,3.53
2023-01-17T01:19:56.018Z,3.93
2023-01-17T01:22:41.949Z,3.50
2023-01-17T01:25:27.556Z,3.60
2023-01-17T01:28:21.953Z,3.80
2023-01-17T01:31:08.007Z,3.30
2023-01-17T01:33:35.085Z,4.03
2023-01-17T01:36:02.187Z,3.67
2023-01-17T01:38:29.247Z,3.53
2023-01-17T01:40:56.718Z,3.80
2023-01-17T01:43:50.610Z,4.80
2023-01-17T01:46:23.852Z,3.87
2023-01-17T01:49:03.225Z,5.07
2023-01-17T01:51:33.415Z,5.03
2023-01-17T01:54:07.404Z,4.53
2023-01-17T01:56:34.517Z,4.70
2023-01-17T01:59:04.116Z,4.87
2023-01-17T02:01:35.669Z,4.70
2023-01-17T02:04:02.940Z,5.17
2023-01-17T02:06:37.212Z,4.97
2023-01-17T02:09:08.386Z,5.00
2023-01-17T02:11:37.138Z,5.37
2023-01-17T02:14:04.203Z,4.80
2023-01-17T02:16:50.399Z,5.63
2023-01-17T02:20:07.120Z,5.27
2023-01-17T02:23:11.450Z,5.17
2023-01-17T02:26:10.471Z,5.60
2023-01-17T02:28:37.473Z,5.23
2023-01-17T02:31:35.692Z,4.80
2023-01-17T02:34:24.805Z,4.23
2023-01-17T02:37:10.692Z,3.90
2023-01-17T02:39:43.689Z,3.83
2023-01-17T02:42:16.401Z,3.97
2023-01-17T02:44:44.376Z,4.17
2023-01-17T02:47:20.997Z,4.03
2023-01-17T02:49:48.098Z,3.40
2023-01-17T02:52:56.637Z,2.90
2023-01-17T02:55:42.756Z,2.97
2023-01-17T02:58:26.394Z,3.17
2023-01-17T03:00:53.451Z,3.13
2023-01-17T03:03:20.477Z,3.93
2023-01-17T03:05:57.250Z,3.27
2023-01-17T03:08:25.085Z,3.17
2023-01-17T03:10:52.286Z,3.53
2023-01-17T03:13:19.352Z,3.73
2023-01-17T03:15:46.372Z,3.60
2023-01-17T03:18:15.659Z,4.27
2023-01-17T03:20:42.505Z,3.60
2023-01-17T03:23:09.560Z,3.77
2023-01-17T03:25:36.594Z,3.77
2023-01-17T03:28:03.769Z,3.23
2023-01-17T03:30:31.016Z,3.07
2023-01-17T03:32:57.652Z,2.60
2023-01-17T03:35:24.737Z,2.00
2023-01-17T03:37:51.744Z,2.13
2023-01-17T03:40:18.879Z,2.10
2023-01-17T03:42:45.637Z,2.20
2023-01-17T03:45:12.771Z,2.57
2023-01-17T03:47:39.420Z,2.20
2023-01-17T03:50:06.698Z,2.13
2023-01-17T03:52:33.766Z,1.83
2023-01-17T03:55:02.532Z,1.70
2023-01-17T03:57:29.739Z,1.70
2023-01-17T03:59:56.751Z,1.70
2023-01-17T04:02:24.503Z,1.10
2023-01-17T04:04:51.616Z,1.53
2023-01-17T04:07:18.684Z,0.97
2023-01-17T04:09:45.717Z,0.70
2023-01-17T04:12:12.790Z,0.60
2023-01-17T04:14:41.029Z,0.60
2023-01-17T04:17:11.783Z,0.47
2023-01-17T04:19:38.869Z,0.80
2023-01-17T04:22:05.883Z,0.40
2023-01-17T04:24:32.539Z,0.60
2023-01-17T04:26:59.747Z,0.40
2023-01-17T04:29:26.763Z,0.37
2023-01-17T04:31:53.372Z,0.40
2023-01-17T04:34:20.483Z,0.30
2023-01-17T04:36:47.526Z,0.70
2023-01-17T04:39:14.594Z,0.40
2023-01-17T04:41:41.694Z,0.23
2023-01-17T04:44:08.718Z,0.30
2023-01-17T04:46:35.793Z,0.20
2023-01-17T04:49:02.848Z,0.30
2023-01-17T04:51:29.864Z,0.87
2023-01-17T04:53:56.941Z,1.37
2023-01-17T04:56:24.094Z,1.20
2023-01-17T04:58:51.117Z,1.23
2023-01-17T05:01:18.244Z,1.60
2023-01-17T05:03:45.390Z,1.53
2023-01-17T05:06:12.468Z,1.73
2023-01-17T05:08:39.497Z,1.60
2023-01-17T05:11:06.718Z,1.70
2023-01-17T05:13:33.361Z,1.70
2023-01-17T05:16:00.434Z,2.50
2023-01-17T05:18:27.517Z,2.20
2023-01-17T05:20:54.596Z,2.10
2023-01-17T05:23:21.644Z,1.40
2023-01-17T05:25:48.657Z,1.90
2023-01-17T05:28:15.746Z,1.70
2023-01-17T05:30:42.889Z,2.13
2023-01-17T05:33:10.433Z,1.50
2023-01-17T05:35:37.647Z,2.33
2023-01-17T05:38:04.697Z,1.90
2023-01-17T05:40:33.068Z,1.80
2023-01-17T05:43:01.475Z,1.50
2023-01-17T05:45:29.781Z,2.00
2023-01-17T05:47:58.190Z,1.57
2023-01-17T05:50:29.953Z,1.60
2023-01-17T05:53:02.898Z,1.67
2023-01-17T05:55:31.110Z,1.80
2023-01-17T05:57:58.303Z,1.90
2023-01-17T06:00:25.396Z,2.23
2023-01-17T06:02:56.568Z,1.60
2023-01-17T06:05:24.176Z,2.27
2023-01-17T06:07:51.397Z,2.20
2023-01-17T06:10:19.556Z,2.70
2023-01-17T06:12:47.138Z,2.10
2023-01-17T06:15:15.944Z,2.27
2023-01-17T06:17:42.984Z,2.80
2023-01-17T06:20:11.154Z,2.83
2023-01-17T06:22:38.253Z,2.80
2023-01-17T06:25:05.566Z,4.10
2023-01-17T06:27:32.631Z,3.57
2023-01-17T06:29:59.701Z,7.37
2023-01-17T06:32:27.015Z,4.53
2023-01-17T06:34:54.150Z,4.07
2023-01-17T06:37:20.756Z,5.03
2023-01-17T06:39:47.911Z,4.80
2023-01-17T06:42:14.566Z,6.03
2023-01-17T06:44:41.632Z,4.73
2023-01-17T06:47:08.306Z,8.23
2023-01-17T06:49:35.367Z,5.60
2023-01-17T06:52:02.487Z,4.50
2023-01-17T06:54:29.501Z,5.27
2023-01-17T06:56:56.566Z,5.27
2023-01-17T06:59:23.676Z,4.53
2023-01-17T07:01:50.839Z,4.97
2023-01-17T07:04:17.960Z,6.57
2023-01-17T07:06:45.064Z,4.70
2023-01-17T07:09:12.182Z,5.77
2023-01-17T07:11:39.268Z,5.43
2023-01-17T07:14:06.277Z,8.93
2023-01-17T07:16:34.066Z,5.07
2023-01-17T07:19:01.169Z,6.93
2023-01-17T07:21:28.284Z,4.73
2023-01-17T07:23:55.557Z,5.17
2023-01-17T07:26:22.148Z,5.00
2023-01-17T07:28:49.250Z,4.10
2023-01-17T07:31:16.383Z,4.70
2023-01-17T07:33:43.428Z,5.60
2023-01-17T07:36:10.717Z,5.60
2023-01-17T07:38:37.826Z,5.87
2023-01-17T07:41:04.718Z,6.37
2023-01-17T07:43:31.796Z,7.33
2023-01-17T07:46:01.343Z,7.30
2023-01-17T07:48:28.891Z,7.37
2023-01-17T07:50:57.059Z,7.17
2023-01-17T07:53:26.258Z,7.17
2023-01-17T07:55:53.519Z,7.97
2023-01-17T07:58:20.677Z,7.73
2023-01-17T08:00:48.278Z,7.77
2023-01-17T08:03:17.575Z,8.10
2023-01-17T08:05:52.624Z,7.63
2023-01-17T08:08:19.959Z,7.33
2023-01-17T08:10:47.173Z,7.50
2023-01-17T08:13:14.218Z,7.17
2023-01-17T08:15:41.444Z,7.17
2023-01-17T08:18:08.517Z,6.83
2023-01-17T08:20:35.137Z,7.07
2023-01-17T08:23:02.184Z,7.23
2023-01-17T08:25:29.369Z,6.83
2023-01-17T08:27:57.757Z,7.07
2023-01-17T08:30:25.180Z,7.13
2023-01-17T08:32:52.235Z,7.67
2023-01-17T08:35:19.974Z,5.67
2023-01-17T08:37:47.652Z,5.30
2023-01-17T08:40:20.633Z,6.40
2023-01-17T08:43:00.712Z,6.27
2023-01-17T08:45:28.052Z,5.80
2023-01-17T08:47:55.310Z,5.90
2023-01-17T08:50:22.374Z,6.17
2023-01-17T08:52:49.828Z,5.27
2023-01-17T08:55:17.714Z,5.50
2023-01-17T08:57:44.756Z,6.13
2023-01-17T09:00:12.011Z,8.07
2023-01-17T09:02:39.088Z,15.33
2023-01-17T09:05:06.436Z,10.53
2023-01-17T09:07:33.511Z,14.67
2023-01-17T09:10:00.568Z,8.77
2023-01-17T09:12:27.672Z,9.53
2023-01-17T09:14:54.785Z,8.43
2023-01-17T09:17:21.917Z,9.47
2023-01-17T09:19:48.983Z,8.27
2023-01-17T09:22:16.053Z,7.03
2023-01-17T09:24:43.144Z,9.97
2023-01-17T09:27:10.242Z,10.10
2023-01-17T09:29:37.337Z,6.57
2023-01-17T09:32:04.249Z,6.13
2023-01-17T09:34:31.280Z,6.53
2023-01-17T09:36:58.336Z,5.87
2023-01-17T09:39:25.488Z,7.23
2023-01-17T09:42:29.950Z,6.63
2023-01-17T09:44:56.965Z,6.10
2023-01-17T09:47:43.681Z,7.10
2023-01-17T09:50:26.803Z,8.73
2023-01-17T09:53:01.092Z,7.00
2023-01-17T09:55:38.519Z,7.43
2023-01-17T09:58:12.735Z,8.53
2023-01-17T10:00:46.369Z,5.90
2023-01-17T10:03:43.227Z,6.90
2023-01-17T10:06:35.881Z,6.63
2023-01-17T10:09:23.733Z,6.90
2023-01-17T10:12:15.217Z,6.43
2023-01-17T10:15:02.986Z,6.07
2023-01-17T10:17:54.441Z,5.90
2023-01-17T10:20:49.976Z,6.17
2023-01-17T10:23:33.159Z,6.10
2023-01-17T10:26:17.102Z,5.67
2023-01-17T10:28:46.929Z,5.43
2023-01-17T10:31:23.489Z,6.43
2023-01-17T10:34:03.574Z,5.50
2023-01-17T10:36:35.800Z,6.03
2023-01-17T10:39:12.929Z,5.23
2023-01-17T10:41:46.053Z,5.33
2023-01-17T10:44:35.488Z,6.17
2023-01-17T10:47:02.662Z,5.50
2023-01-17T10:49:29.818Z,5.10
2023-01-17T10:52:03.686Z,4.43
2023-01-17T10:54:54.373Z,4.30
2023-01-17T10:57:26.997Z,5.77
2023-01-17T10:59:58.603Z,4.20
2023-01-17T11:02:32.828Z,5.10
2023-01-17T11:05:05.524Z,5.37
2023-01-17T11:07:32.839Z,4.13
2023-01-17T11:09:59.966Z,4.90
2023-01-17T11:12:30.743Z,4.97
2023-01-17T11:15:17.770Z,5.73
2023-01-17T11:18:00.592Z,4.70
2023-01-17T11:20:35.768Z,7.47
2023-01-17T11:23:21.159Z,7.60
2023-01-17T11:26:00.038Z,4.23
2023-01-17T11:28:41.409Z,4.80
2023-01-17T11:31:16.398Z,4.43
2023-01-17T11:33:45.604Z,6.67
2023-01-17T11:36:21.660Z,6.47
2023-01-17T11:39:17.161Z,6.90
2023-01-17T11:41:45.855Z,4.07
2023-01-17T11:44:32.089Z,4.33
2023-01-17T11:47:12.241Z,3.50
2023-01-17T11:49:41.814Z,5.30
2023-01-17T11:52:24.462Z,4.77
2023-01-17T11:54:54.052Z,3.80
2023-01-17T11:57:33.215Z,3.90
2023-01-17T12:00:19.364Z,4.43
2023-01-17T12:03:06.618Z,4.00
2023-01-17T12:05:59.379Z,4.17
2023-01-17T12:08:41.036Z,4.27
2023-01-17T12:11:18.400Z,4.97
2023-01-17T12:14:03.193Z,4.07
2023-01-17T12:16:51.600Z,4.40
2023-01-17T12:19:32.159Z,5.47
2023-01-17T12:22:22.978Z,4.27
2023-01-17T12:25:20.338Z,3.87
2023-01-17T12:28:15.503Z,3.53
2023-01-17T12:30:57.700Z,4.00
2023-01-17T12:33:37.664Z,3.87
2023-01-17T12:36:22.447Z,3.57
2023-01-17T12:38:49.667Z,3.20
2023-01-17T12:41:24.992Z,3.93
2023-01-17T12:43:57.560Z,4.63
2023-01-17T12:46:33.059Z,3.83
2023-01-17T12:49:22.897Z,4.70
2023-01-17T12:51:57.459Z,4.00
2023-01-17T12:54:41.470Z,4.93
2023-01-17T12:57:23.412Z,3.73
2023-01-17T13:00:14.166Z,4.30
2023-01-17T13:02:51.035Z,3.90
2023-01-17T13:05:23.618Z,3.67
2023-01-17T13:08:19.842Z,3.77
2023-01-17T13:11:11.840Z,4.93
2023-01-17T13:13:41.244Z,5.00
2023-01-17T13:16:40.087Z,3.87
2023-01-17T13:19:25.330Z,4.77
2023-01-17T13:21:53.067Z,4.40
2023-01-17T13:24:31.489Z,5.03
2023-01-17T13:27:28.020Z,4.67
2023-01-17T13:30:18.077Z,3.93
2023-01-17T13:33:29.416Z,4.47
2023-01-17T13:36:30.636Z,4.60
2023-01-17T13:39:17.358Z,4.87
2023-01-17T13:41:54.848Z,3.90
2023-01-17T13:44:25.899Z,4.10
2023-01-17T13:47:07.992Z,3.80
2023-01-17T13:49:48.551Z,4.00
2023-01-17T13:52:21.207Z,3.80
2023-01-17T13:54:49.545Z,3.67
2023-01-17T13:57:32.798Z,3.70
2023-01-17T14:00:23.098Z,3.20
2023-01-17T14:02:51.429Z,4.73
2023-01-17T14:05:31.162Z,4.30
2023-01-17T14:08:00.773Z,3.93
2023-01-17T14:10:27.802Z,5.30
2023-01-17T14:12:55.700Z,4.80
2023-01-17T14:15:27.167Z,4.60
2023-01-17T14:18:04.343Z,4.20
2023-01-17T14:20:38.231Z,4.77
2023-01-17T14:23:23.743Z,3.83
2023-01-17T14:25:51.292Z,3.20
2023-01-17T14:28:31.385Z,3.63
2023-01-17T14:31:00.906Z,4.07
2023-01-17T14:33:30.807Z,4.33
2023-01-17T14:36:07.539Z,4.17
2023-01-17T14:38:41.951Z,3.43
2023-01-17T14:41:13.195Z,3.43
2023-01-17T14:43:42.707Z,2.93
2023-01-17T14:46:26.854Z,3.17
2023-01-17T14:49:05.698Z,2.97
2023-01-17T14:51:37.102Z,3.40
2023-01-17T14:54:14.818Z,3.23
2023-01-17T14:56:41.846Z,3.13
2023-01-17T14:59:17.302Z,3.03
2023-01-17T15:02:06.016Z,2.73
2023-01-17T15:04:39.047Z,3.53
2023-01-17T15:07:06.395Z,4.90
2023-01-17T15:09:36.435Z,3.60
2023-01-17T15:12:04.095Z,3.87
2023-01-17T15:14:38.231Z,2.87
2023-01-17T15:17:24.669Z,3.70
2023-01-17T15:19:59.198Z,5.13
2023-01-17T15:22:27.015Z,3.93
2023-01-17T15:24:54.310Z,3.10
2023-01-17T15:27:21.607Z,3.20
2023-01-17T15:29:48.841Z,3.23
2023-01-17T15:32:22.497Z,3.40
2023-01-17T15:34:50.977Z,3.77
2023-01-17T15:37:30.841Z,4.87
2023-01-17T15:40:18.543Z,4.00
2023-01-17T15:42:48.587Z,4.50
2023-01-17T15:45:22.046Z,11.27
2023-01-17T15:47:49.168Z,13.23
2023-01-17T15:50:28.418Z,12.00
2023-01-17T15:52:58.211Z,5.13
2023-01-17T15:55:36.375Z,6.77
2023-01-17T15:58:04.090Z,8.97
2023-01-17T16:00:38.237Z,7.43
2023-01-17T16:03:26.163Z,18.57
2023-01-17T16:05:56.739Z,4.17
2023-01-17T16:08:30.541Z,2.53
2023-01-17T16:11:02.087Z,3.43
2023-01-17T16:13:30.685Z,2.97
2023-01-17T16:16:18.641Z,3.33
2023-01-17T16:18:46.528Z,2.30
2023-01-17T16:21:21.141Z,4.80
2023-01-17T16:23:48.270Z,3.40
2023-01-17T16:26:15.622Z,3.03
2023-01-17T16:28:43.013Z,2.60
2023-01-17T16:31:10.119Z,2.33
2023-01-17T16:33:37.242Z,2.83
2023-01-17T16:36:04.397Z,2.80
2023-01-17T16:38:32.180Z,8.83
2023-01-17T16:40:59.240Z,11.50
2023-01-17T16:43:26.295Z,10.20
2023-01-17T16:45:53.976Z,11.83
2023-01-17T16:48:21.477Z,7.23
2023-01-17T16:50:53.059Z,4.20
2023-01-17T16:53:24.739Z,2.30
2023-01-17T16:55:54.644Z,2.60
2023-01-17T16:58:21.859Z,2.10
2023-01-17T17:00:48.944Z,2.73
2023-01-17T17:03:17.824Z,2.20
2023-01-17T17:05:47.081Z,2.40
2023-01-17T17:08:15.214Z,2.53
2023-01-17T17:10:42.297Z,2.50
2023-01-17T17:13:09.455Z,3.03
2023-01-17T17:15:41.761Z,1.83
2023-01-17T17:18:14.674Z,2.50
2023-01-17T17:20:41.924Z,3.13
2023-01-17T17:23:10.075Z,3.33
2023-01-17T17:25:37.464Z,3.97
2023-01-17T17:28:05.602Z,2.50
2023-01-17T17:30:33.299Z,2.93
2023-01-17T17:32:59.896Z,2.93
2023-01-17T17:35:26.927Z,2.67
2023-01-17T17:37:54.442Z,5.37
2023-01-17T17:40:21.652Z,2.93
2023-01-17T17:42:48.237Z,3.00
2023-01-17T17:45:15.294Z,2.67
2023-01-17T17:47:42.341Z,2.73
2023-01-17T17:50:09.588Z,2.20
2023-01-17T17:52:36.670Z,2.20
2023-01-17T17:55:03.792Z,1.60
2023-01-17T17:57:30.807Z,2.07
2023-01-17T17:59:59.613Z,2.20
2023-01-17T18:02:26.304Z,2.43
2023-01-17T18:04:53.492Z,2.43
2023-01-17T18:07:20.657Z,1.93
2023-01-17T18:09:47.743Z,2.37
2023-01-17T18:12:14.768Z,2.50
2023-01-17T18:14:41.794Z,2.57
2023-01-17T18:17:08.876Z,2.23
2023-01-17T18:19:35.509Z,3.20
2023-01-17T18:22:03.631Z,3.67
2023-01-17T18:24:30.734Z,3.43
2023-01-17T18:26:57.763Z,2.97
2023-01-17T18:29:26.768Z,2.80
2023-01-17T18:31:54.202Z,3.10
2023-01-17T18:34:24.090Z,2.60
2023-01-17T18:36:51.498Z,3.10
2023-01-17T18:39:29.374Z,2.80
2023-01-17T18:41:56.130Z,2.97
2023-01-17T18:44:23.219Z,3.33
2023-01-17T18:46:52.305Z,3.13
2023-01-17T18:49:19.526Z,2.93
2023-01-17T18:51:50.268Z,3.80
2023-01-17T18:54:17.913Z,3.27
2023-01-17T18:56:44.571Z,3.87
2023-01-17T18:59:15.969Z,3.20
2023-01-17T19:01:43.612Z,3.27
2023-01-17T19:04:12.940Z,3.40
2023-01-17T19:06:42.212Z,2.70
2023-01-17T19:09:09.486Z,3.53
2023-01-17T19:11:36.800Z,2.93
2023-01-17T19:14:04.097Z,2.87
2023-01-17T19:16:33.051Z,2.23
2023-01-17T19:19:05.403Z,2.83
2023-01-17T19:21:32.461Z,2.80
2023-01-17T19:24:01.447Z,3.30
2023-01-17T19:26:29.805Z,3.13
2023-01-17T19:28:58.697Z,3.90
2023-01-17T19:31:27.600Z,3.60
2023-01-17T19:33:57.313Z,3.60
2023-01-17T19:36:34.297Z,7.83
2023-01-17T19:39:05.910Z,13.60
2023-01-17T19:41:40.595Z,14.07
2023-01-17T19:44:09.295Z,12.43
2023-01-17T19:46:37.141Z,10.80
2023-01-17T19:49:05.916Z,7.67
2023-01-17T19:51:33.022Z,6.43
2023-01-17T19:54:01.289Z,4.27
2023-01-17T19:56:28.957Z,5.37
2023-01-17T19:59:00.543Z,3.93
2023-01-17T20:01:30.082Z,3.70
2023-01-17T20:03:58.376Z,3.97
2023-01-17T20:06:28.753Z,4.23
2023-01-17T20:08:56.172Z,3.60
2023-01-17T20:11:24.674Z,3.90
2023-01-17T20:13:54.157Z,4.03
2023-01-17T20:16:21.545Z,3.90
2023-01-17T20:18:48.645Z,2.93
2023-01-17T20:21:18.286Z,3.20
2023-01-17T20:23:47.000Z,3.67
2023-01-17T20:26:19.115Z,4.03
2023-01-17T20:28:47.762Z,3.87
2023-01-17T20:31:22.678Z,3.60
2023-01-17T20:33:50.350Z,3.70
2023-01-17T20:36:18.521Z,3.10
2023-01-17T20:38:45.788Z,15.43
2023-01-17T20:41:23.817Z,18.90
2023-01-17T20:43:52.769Z,3.90
2023-01-17T20:46:21.638Z,3.00
2023-01-17T20:48:51.122Z,3.07
2023-01-17T20:51:19.261Z,3.17
2023-01-17T20:53:50.387Z,2.83
2023-01-17T20:56:18.042Z,3.10
2023-01-17T20:58:45.411Z,3.33
2023-01-17T21:01:18.893Z,3.63
2023-01-17T21:03:47.831Z,4.00
2023-01-17T21:06:14.911Z,3.00
2023-01-17T21:08:44.204Z,3.60
2023-01-17T21:11:13.459Z,3.47
2023-01-17T21:13:40.252Z,2.87
2023-01-17T21:16:08.281Z,4.00
2023-01-17T21:18:35.673Z,3.83
2023-01-17T21:21:13.577Z,3.60
2023-01-17T21:23:41.788Z,3.03
2023-01-17T21:26:11.984Z,2.90
2023-01-17T21:28:40.080Z,2.67
2023-01-17T21:31:19.591Z,3.13
2023-01-17T21:33:47.465Z,2.60
2023-01-17T21:36:16.177Z,2.43
2023-01-17T21:38:43.248Z,3.43
2023-01-17T21:41:10.443Z,3.70
2023-01-17T21:43:37.506Z,4.63
2023-01-17T21:46:05.012Z,4.30
2023-01-17T21:48:31.761Z,5.00
2023-01-17T21:51:09.063Z,3.87
2023-01-17T21:53:38.065Z,3.53
2023-01-17T21:56:25.995Z,3.27
2023-01-17T21:58:56.572Z,2.67
2023-01-17T22:01:28.990Z,3.40
2023-01-17T22:04:01.014Z,4.70
2023-01-17T22:06:34.145Z,3.50
2023-01-17T22:09:01.187Z,2.83
2023-01-17T22:11:30.323Z,3.60
2023-01-17T22:13:59.134Z,2.60
2023-01-17T22:16:26.463Z,3.23
2023-01-17T22:18:53.591Z,3.20
2023-01-17T22:21:22.753Z,3.60
2023-01-17T22:23:51.993Z,3.07
2023-01-17T22:26:20.269Z,3.47
2023-01-17T22:28:47.408Z,3.80
2023-01-17T22:31:20.811Z,3.60
2023-01-17T22:33:48.392Z,3.33
2023-01-17T22:36:15.639Z,3.50
2023-01-17T22:38:43.286Z,3.37
2023-01-17T22:41:19.859Z,3.23
2023-01-17T22:43:49.228Z,3.40
2023-01-17T22:46:18.855Z,3.27
2023-01-17T22:48:46.178Z,3.13
2023-01-17T22:51:15.520Z,3.27
2023-01-17T22:53:44.121Z,3.30
2023-01-17T22:56:13.735Z,2.90
2023-01-17T22:58:48.719Z,3.20
2023-01-17T23:01:19.230Z,4.07
2023-01-17T23:03:51.686Z,3.50
2023-01-17T23:06:27.181Z,3.43
2023-01-17T23:08:55.836Z,3.37
2023-01-17T23:11:43.865Z,4.37
2023-01-17T23:14:25.629Z,4.13
2023-01-17T23:17:19.285Z,3.70
2023-01-17T23:19:51.321Z,3.80
2023-01-17T23:22:29.930Z,4.17
2023-01-17T23:25:02.376Z,3.87
2023-01-17T23:27:59.574Z,3.80
2023-01-17T23:30:35.323Z,4.33
2023-01-17T23:33:07.351Z,4.23
2023-01-17T23:35:41.247Z,3.80
2023-01-17T23:38:33.793Z,3.70
2023-01-17T23:41:24.909Z,3.63
2023-01-17T23:43:53.283Z,3.27
2023-01-17T23:46:20.458Z,3.57
2023-01-17T23:48:47.592Z,3.57
2023-01-17T23:51:14.731Z,3.47
2023-01-17T23:53:41.397Z,3.47
2023-01-17T23:56:17.174Z,3.33
2023-01-17T23:58:44.217Z,3.30
